Flight Track Log - Related Links

Times and Time Zones

All times are in EDT time to prevent confusion due to time zone crossing. See the SFH77 flight status page for this flight to view local times or setup timezone preferences in your user account.

Time Position Orientation Groundspeed Altitude Reporting Facility
EDT Latitude Longitude Course Direction KTS MPH feet Rate Location/Type
Sat 02:29:34 PM 40.8167 -72.6167 113° Southeast 174 200 1,300  Level New York TRACON
Sat 02:29:51 PM 40.8103 -72.5964 113° Southeast 195 224 2,000 2,182 Climbing Boston Center
Sat 02:30:51 PM 40.8250 -72.5278 74° East 195 224 4,100 1,800 Climbing Boston Center
Sat 02:31:51 PM 40.7936 -72.4811 132° Southeast 170 196 5,600 1,650 Climbing Boston Center
Sat 02:32:51 PM 40.7478 -72.5114 207° Southwest 122 140 7,400 1,636 Climbing Boston Center
Sat 02:34:03 PM 40.7103 -72.5578 223° Southwest 135 155 9,200 1,727 Climbing Boston Center
Sat 02:35:03 PM 40.6747 -72.6181 232° Southwest 165 190 11,200 1,850 Climbing Boston Center
Sat 02:36:03 PM 40.6558 -72.6781 247° West 170 196 12,900 1,650 Climbing Boston Center
Sat 02:37:03 PM 40.6350 -72.7356 244° Southwest 175 201 14,500 1,400 Climbing Boston Center
Sat 02:38:03 PM 40.5994 -72.7764 221° Southwest 175 201 15,700 1,200 Climbing Boston Center
Sat 02:39:03 PM 40.5597 -72.8197 220° Southwest 175 201 16,900 1,100 Climbing Boston Center
Sat 02:40:03 PM 40.5200 -72.8633 220° Southwest 188 216 17,900 1,000 Climbing Boston Center
Sat 02:41:03 PM 40.4781 -72.9094 220° Southwest 193 222 18,900 1,000 Climbing Boston Center
Sat 02:42:03 PM 40.4383 -72.9444 214° Southwest 193 222 19,900 1,050 Climbing Boston Center
Sat 02:43:03 PM 40.4025 -72.9933 226° Southwest 193 222 21,000 900 Climbing Boston Center
Sat 02:44:03 PM 40.3567 -73.0364 216° Southwest 199 229 21,700 700 Climbing Boston Center
Sat 02:45:03 PM 40.3125 -73.0906 223° Southwest 205 236 22,400 700 Climbing Boston Center
Sat 02:46:03 PM 40.2683 -73.1417 221° Southwest 210 242 23,100 900 Climbing Boston Center
Sat 02:47:03 PM 40.2222 -73.1928 220° Southwest 215 247 24,200 900 Climbing Boston Center
Sat 02:48:03 PM 40.1656 -73.2547 220° Southwest 221 254 24,900 671 Climbing Boston Center
Sat 02:49:35 PM 40.0964 -73.3322 221° Southwest 229 264 25,900 437 Climbing Washington Center
Sat 02:50:34 PM 40.0411 -73.3911 219° Southwest 235 270 26,000 50 Climbing Washington Center
Sat 02:51:35 PM 39.9819 -73.4525 218° Southwest 254 292 26,000  Level Washington Center
Sat 02:52:33 PM 39.9267 -73.5136 220° Southwest 259 298 26,000  Level Washington Center
Sat 02:53:34 PM 39.8714 -73.5719 219° Southwest 259 298 26,000  Level Washington Center
Sat 02:54:34 PM 39.8161 -73.6250 216° Southwest 259 298 26,000  Level Washington Center
Sat 02:55:35 PM 39.7586 -73.6806 217° Southwest 259 298 26,000  Level Washington Center
Sat 02:56:35 PM 39.7011 -73.7361 217° Southwest 259 298 26,000  Level Washington Center
Sat 02:57:34 PM 39.6458 -73.7886 216° Southwest 259 298 26,000  Level Washington Center
Sat 02:58:34 PM 39.5881 -73.8439 216° Southwest 265 305 26,000  Level Washington Center
Sat 02:59:35 PM 39.5306 -73.8939 214° Southwest 265 305 26,000  Level Washington Center
Sat 03:00:36 PM 39.4708 -73.9489 215° Southwest 265 305 26,000  Level Washington Center
Sat 03:01:34 PM 39.4153 -74.0039 217° Southwest 265 305 26,000  Level Washington Center
Sat 03:02:34 PM 39.3578 -74.0561 215° Southwest 265 305 26,000  Level Washington Center
Sat 03:03:35 PM 39.3022 -74.1111 217° Southwest 265 305 26,000  Level Washington Center
Sat 03:04:36 PM 39.2444 -74.1658 216° Southwest 265 305 26,000  Level Washington Center
Sat 03:05:34 PM 39.1847 -74.2206 215° Southwest 265 305 26,000  Level Washington Center
Sat 03:06:35 PM 39.1331 -74.2697 216° Southwest 265 305 26,000  Level Washington Center
Sat 03:07:36 PM 39.0733 -74.3269 217° Southwest 270 311 26,000  Level Washington Center
Sat 03:08:34 PM 39.0133 -74.3842 217° Southwest 270 311 26,000  Level Washington Center
Sat 03:09:35 PM 38.9556 -74.4358 215° Southwest 270 311 26,000  Level Washington Center
Sat 03:10:36 PM 38.8956 -74.4900 215° Southwest 270 311 26,000  Level Washington Center
Sat 03:11:35 PM 38.8378 -74.5442 216° Southwest 270 311 26,000  Level Washington Center
Sat 03:12:35 PM 38.7778 -74.6011 217° Southwest 270 311 26,000  Level Washington Center
Sat 03:13:36 PM 38.7197 -74.6525 215° Southwest 265 305 26,000  Level Washington Center
Sat 03:14:34 PM 38.6597 -74.7036 214° Southwest 265 305 26,000  Level Washington Center
Sat 03:15:34 PM 38.5997 -74.7603 216° Southwest 265 305 26,000  Level Washington Center
Sat 03:16:35 PM 38.5439 -74.8139 217° Southwest 271 312 26,000  Level Washington Center
Sat 03:17:36 PM 38.4836 -74.8703 216° Southwest 266 306 26,000  Level Washington Center
Sat 03:18:36 PM 38.4236 -74.9239 215° Southwest 271 312 26,000  Level Washington Center
Sat 03:19:34 PM 38.3633 -74.9800 216° Southwest 271 312 26,000  Level Washington Center
Sat 03:20:36 PM 38.3031 -75.0389 217° Southwest 271 312 26,000  Level Washington Center
Sat 03:21:33 PM 38.2431 -75.0894 213° Southwest 271 312 26,000  Level Washington Center
Sat 03:22:34 PM 38.1847 -75.1481 218° Southwest 271 312 26,000  Level Washington Center
Sat 03:23:35 PM 38.1267 -75.2011 216° Southwest 271 312 26,000  Level Washington Center
Sat 03:24:36 PM 38.0664 -75.2542 215° Southwest 271 312 26,000  Level Washington Center
Sat 03:25:36 PM 38.0058 -75.3072 215° Southwest 266 306 26,000  Level Washington Center
Sat 03:26:36 PM 37.9456 -75.3628 216° Southwest 266 306 26,000  Level Washington Center
Sat 03:27:34 PM 37.8853 -75.4128 213° Southwest 266 306 26,000  Level Washington Center
Sat 03:28:34 PM 37.8247 -75.4683 216° Southwest 266 306 26,000  Level Washington Center
Sat 03:29:35 PM 37.7644 -75.5183 213° Southwest 266 306 26,000  Level Washington Center
Sat 03:30:36 PM 37.7039 -75.5733 216° Southwest 271 312 26,000  Level Washington Center
Sat 03:31:34 PM 37.6456 -75.6233 214° Southwest 271 312 26,000  Level Washington Center
Sat 03:32:35 PM 37.5850 -75.6783 216° Southwest 271 312 26,000  Level Washington Center
Sat 03:33:36 PM 37.5222 -75.7358 216° Southwest 271 312 26,000  Level Washington Center
Sat 03:34:34 PM 37.4575 -75.7906 214° Southwest 271 312 26,000  Level Washington Center
Sat 03:35:34 PM 37.3950 -75.8456 215° Southwest 276 318 26,000  Level Washington Center
Sat 03:36:34 PM 37.3303 -75.9025 215° Southwest 282 325 26,000  Level Washington Center
Sat 03:37:35 PM 37.2653 -75.9572 214° Southwest 282 325 26,000  Level Washington Center
Sat 03:38:35 PM 37.2025 -76.0142 216° Southwest 282 325 26,000  Level Washington Center
Sat 03:39:36 PM 37.1314 -76.0764 215° Southwest 282 325 26,000  Level Washington Center
Sat 03:40:36 PM 37.0644 -76.1333 214° Southwest 282 325 26,000  Level Washington Center
Sat 03:41:34 PM 36.9953 -76.1875 212° Southwest 288 331 26,000  Level Washington Center
Sat 03:42:35 PM 36.9303 -76.2442 215° Southwest 288 331 26,000 -397 Level Washington Center
Sat 03:43:35 PM 36.8653 -76.3033 216° Southwest 288 331 25,200 -650 Descending Washington Center
Sat 03:44:35 PM 36.7961 -76.3597 213° Southwest 288 331 24,700 -446 Descending Washington Center
Sat 03:45:36 PM 36.7289 -76.4211 216° Southwest 293 337 24,300 -347 Descending Washington Center
Sat 03:46:36 PM 36.6619 -76.4775 214° Southwest 298 343 24,000 -151 Descending Washington Center
Sat 03:47:35 PM 36.5989 -76.5336 216° Southwest 293 337 24,000  Level Washington Center
Sat 03:48:35 PM 36.5358 -76.5847 213° Southwest 293 337 24,000  Level Washington Center
Sat 03:49:36 PM 36.4728 -76.6381 214° Southwest 287 330 24,000  Level Washington Center
Sat 03:50:33 PM 36.4097 -76.6914 214° Southwest 282 325 24,000  Level Washington Center
Sat 03:51:34 PM 36.3444 -76.7447 213° Southwest 282 325 24,000  Level Washington Center
Sat 03:52:34 PM 36.2856 -76.7981 216° Southwest 282 325 24,000  Level Washington Center
Sat 03:53:35 PM 36.2225 -76.8511 214° Southwest 282 325 24,000  Level Washington Center
Sat 03:54:36 PM 36.1614 -76.8989 212° Southwest 277 319 24,000  Level Washington Center
Sat 03:55:34 PM 36.0983 -76.9519 214° Southwest 272 313 24,000  Level Washington Center
Sat 03:56:35 PM 36.0372 -77.0047 215° Southwest 272 313 24,000  Level Washington Center
Sat 03:57:35 PM 35.9739 -77.0550 213° Southwest 272 313 24,000  Level Washington Center
Sat 03:58:36 PM 35.9128 -77.1050 214° Southwest 272 313 24,000  Level Washington Center
Sat 03:59:34 PM 35.8536 -77.1631 219° Southwest 272 313 24,000  Level Washington Center
Sat 04:00:34 PM 35.7842 -77.2178 213° Southwest 277 319 24,000  Level Washington Center
Sat 04:01:35 PM 35.7167 -77.2728 213° Southwest 287 330 24,000  Level Washington Center
Sat 04:02:36 PM 35.6489 -77.3275 213° Southwest 287 330 24,000  Level Washington Center
Sat 04:03:36 PM 35.5856 -77.3800 214° Southwest 287 330 24,000  Level Washington Center
Sat 04:04:34 PM 35.5222 -77.4347 215° Southwest 282 325 24,000  Level Washington Center
Sat 04:05:36 PM 35.4567 -77.4867 213° Southwest 282 325 24,000  Level Washington Center
Sat 04:06:36 PM 35.3911 -77.5411 214° Southwest 282 325 24,000  Level Washington Center
Sat 04:07:34 PM 35.3275 -77.6008 217° Southwest 287 330 24,000  Level Washington Center
Sat 04:08:35 PM 35.2681 -77.6653 222° Southwest 287 330 24,000  Level Washington Center
Sat 04:09:35 PM 35.2106 -77.7250 220° Southwest 282 325 24,000  Level Washington Center
Sat 04:10:35 PM 35.1533 -77.7869 222° Southwest 282 325 24,000  Level Washington Center
Sat 04:11:33 PM 35.0894 -77.8486 218° Southwest 287 330 24,000 -50 Level Washington Center
Sat 04:12:34 PM 35.0256 -77.9128 219° Southwest 287 330 23,900 -298 Descending Washington Center
Sat 04:13:34 PM 34.9681 -77.9769 222° Southwest 292 336 23,400 -545 Descending Washington Center
Sat 04:14:35 PM 34.9083 -78.0386 220° Southwest 292 336 22,800 -545 Descending Washington Center
Sat 04:15:35 PM 34.8486 -78.1000 220° Southwest 287 330 22,300 -496 Descending Washington Center
Sat 04:16:36 PM 34.7975 -78.1567 222° Southwest 287 330 21,800 -555 Descending Washington Center
Sat 04:17:34 PM 34.7397 -78.2156 220° Southwest 287 330 21,200 -458 Descending Washington Center
Sat 04:18:34 PM 34.6822 -78.2742 220° Southwest 287 330 20,900 -347 Descending Washington Center
Sat 04:19:35 PM 34.6203 -78.3378 220° Southwest 287 330 20,500 -393 Descending Washington Center
Sat 04:20:36 PM 34.5606 -78.3939 218° Southwest 287 330 20,100 -347 Descending Washington Center
Sat 04:21:36 PM 34.5047 -78.4525 221° Southwest 287 330 19,800 -349 Descending Washington Center
Sat 04:22:02 PM 34.4728 -78.4853 220° Southwest 285 328 19,600 -349 Descending Jacksonville Center
Sat 04:23:02 PM 34.4164 -78.5408 219° Southwest 273 314 19,300 -200 Descending Jacksonville Center
Sat 04:24:02 PM 34.3581 -78.5992 220° Southwest 268 308 19,200 -150 Descending Jacksonville Center
Sat 04:25:02 PM 34.3014 -78.6572 220° Southwest 268 308 19,000 -100 Descending Jacksonville Center
Sat 04:26:02 PM 34.2472 -78.7228 225° Southwest 273 314 19,000 -50 Level Jacksonville Center
Sat 04:27:02 PM 34.1889 -78.7856 222° Southwest 281 323 18,900 -550 Descending Jacksonville Center
Sat 04:28:02 PM 34.1325 -78.8486 223° Southwest 281 323 17,900 -850 Descending Jacksonville Center
Sat 04:29:02 PM 34.0761 -78.9114 223° Southwest 281 323 17,200 -600 Descending Jacksonville Center
Sat 04:30:02 PM 34.0217 -78.9739 224° Southwest 281 323 16,700 -500 Descending Jacksonville Center
Sat 04:31:02 PM 33.9694 -79.0364 225° Southwest 275 316 16,200 -500 Descending Jacksonville Center
Sat 04:32:02 PM 33.9169 -79.0964 223° Southwest 275 316 15,700 -500 Descending Jacksonville Center
Sat 04:33:02 PM 33.8625 -79.1536 221° Southwest 270 311 15,200 -550 Descending Jacksonville Center
Sat 04:34:02 PM 33.8119 -79.2133 224° Southwest 264 304 14,600 -550 Descending Jacksonville Center
Sat 04:35:02 PM 33.7550 -79.2631 216° Southwest 264 304 14,100 -400 Descending Jacksonville Center
Sat 04:36:02 PM 33.6958 -79.3081 212° Southwest 264 304 13,800 -450 Descending Jacksonville Center
Sat 04:37:02 PM 33.6325 -79.3556 212° Southwest 264 304 13,200 -700 Descending Jacksonville Center
Sat 04:38:02 PM 33.5689 -79.4003 210° Southwest 269 310 12,400 -700 Descending Jacksonville Center
Sat 04:39:02 PM 33.5078 -79.4475 213° Southwest 269 310 11,800 -500 Descending Jacksonville Center
Sat 04:40:02 PM 33.4503 -79.4897 211° Southwest 269 310 11,400 -400 Descending Jacksonville Center
Sat 04:41:02 PM 33.4017 -79.5389 220° Southwest 252 290 11,000 -800 Descending Jacksonville Center
Sat 04:42:02 PM 33.3531 -79.5928 223° Southwest 242 278 9,800 -1,200 Descending Jacksonville Center
Sat 04:43:02 PM 33.3022 -79.6519 224° Southwest 247 284 8,600 -1,250 Descending Jacksonville Center
Sat 04:44:02 PM 33.2494 -79.7058 221° Southwest 252 290 7,300 -1,300 Descending Jacksonville Center
Sat 04:45:02 PM 33.1986 -79.7650 224° Southwest 252 290 6,000 -1,250 Descending Jacksonville Center
Sat 04:46:02 PM 33.1500 -79.8161 221° Southwest 252 290 4,800 -1,100 Descending Jacksonville Center
Sat 04:47:02 PM 33.1031 -79.8675 223° Southwest 247 284 3,800 -1,000 Descending Jacksonville Center
Sat 04:48:02 PM 33.0542 -79.9161 220° Southwest 241 277 2,800 -1,000 Descending Jacksonville Center
Sat 04:50:00 PM 32.9389 -80.0084 220° Southwest  Level Estimated
Sat 04:57:00 PM 32.8986 -80.0405 348° North  Level Estimated
Sat 04:58:00 PM 32.8986 -80.0405 348° North  Level Estimated
Sat 04:59:00 PM 32.8986 -80.0405 348° North  Level Estimated
Sat 05:00:00 PM 32.8986 -80.0405 348° North  Level Estimated

Login

Don't have an account? Register now (free) for customized features, flight alerts, and more!